sensor_id;sensor_type;location;lat;lon;timestamp;temperature;humidity
5578;DHT22;2811;51.900;10.734;2022-09-09T00:00:15;16.30;99.90
5578;DHT22;2811;51.900;10.734;2022-09-09T00:02:47;16.30;99.90
5578;DHT22;2811;51.900;10.734;2022-09-09T00:05:23;16.30;99.90
5578;DHT22;2811;51.900;10.734;2022-09-09T00:07:55;16.30;99.90
5578;DHT22;2811;51.900;10.734;2022-09-09T00:10:28;16.20;99.90
5578;DHT22;2811;51.900;10.734;2022-09-09T00:13:02;16.20;99.90
5578;DHT22;2811;51.900;10.734;2022-09-09T00:15:38;16.20;99.90
5578;DHT22;2811;51.900;10.734;2022-09-09T00:18:14;16.50;99.90
5578;DHT22;2811;51.900;10.734;2022-09-09T00:20:49;16.10;99.90
5578;DHT22;2811;51.900;10.734;2022-09-09T00:23:24;16.10;99.90
5578;DHT22;2811;51.900;10.734;2022-09-09T00:25:59;16.10;99.90
5578;DHT22;2811;51.900;10.734;2022-09-09T00:28:32;16.00;99.90
5578;DHT22;2811;51.900;10.734;2022-09-09T00:31:04;16.10;99.90
5578;DHT22;2811;51.900;10.734;2022-09-09T00:33:34;16.10;99.90
5578;DHT22;2811;51.900;10.734;2022-09-09T00:36:01;16.20;99.90
5578;DHT22;2811;51.900;10.734;2022-09-09T00:38:33;16.10;99.90
5578;DHT22;2811;51.900;10.734;2022-09-09T00:41:07;16.20;99.90
5578;DHT22;2811;51.900;10.734;2022-09-09T00:43:39;16.10;99.90
5578;DHT22;2811;51.900;10.734;2022-09-09T00:46:21;16.10;99.90
5578;DHT22;2811;51.900;10.734;2022-09-09T00:48:56;16.10;99.90
5578;DHT22;2811;51.900;10.734;2022-09-09T00:51:32;16.10;99.90
5578;DHT22;2811;51.900;10.734;2022-09-09T00:54:13;16.00;99.90
5578;DHT22;2811;51.900;10.734;2022-09-09T00:56:49;15.90;99.90
5578;DHT22;2811;51.900;10.734;2022-09-09T00:59:26;15.80;99.90
5578;DHT22;2811;51.900;10.734;2022-09-09T01:01:55;15.80;99.90
5578;DHT22;2811;51.900;10.734;2022-09-09T01:04:29;15.80;99.90
5578;DHT22;2811;51.900;10.734;2022-09-09T01:07:02;15.70;99.90
5578;DHT22;2811;51.900;10.734;2022-09-09T01:09:33;15.60;99.90
5578;DHT22;2811;51.900;10.734;2022-09-09T01:12:09;15.60;99.90
5578;DHT22;2811;51.900;10.734;2022-09-09T01:14:42;15.60;99.90
5578;DHT22;2811;51.900;10.734;2022-09-09T01:17:14;15.40;99.90
5578;DHT22;2811;51.900;10.734;2022-09-09T01:19:55;15.30;99.90
5578;DHT22;2811;51.900;10.734;2022-09-09T01:22:30;15.40;99.90
5578;DHT22;2811;51.900;10.734;2022-09-09T01:25:22;15.40;99.90
5578;DHT22;2811;51.900;10.734;2022-09-09T01:27:56;15.40;99.90
5578;DHT22;2811;51.900;10.734;2022-09-09T01:30:26;15.40;99.90
5578;DHT22;2811;51.900;10.734;2022-09-09T01:32:55;15.40;99.90
5578;DHT22;2811;51.900;10.734;2022-09-09T01:35:32;15.30;99.90
5578;DHT22;2811;51.900;10.734;2022-09-09T01:38:03;15.00;99.90
5578;DHT22;2811;51.900;10.734;2022-09-09T01:40:31;14.90;99.90
5578;DHT22;2811;51.900;10.734;2022-09-09T01:43:00;14.90;99.90
5578;DHT22;2811;51.900;10.734;2022-09-09T01:45:27;14.90;99.90
5578;DHT22;2811;51.900;10.734;2022-09-09T01:47:54;14.90;99.90
5578;DHT22;2811;51.900;10.734;2022-09-09T01:50:22;14.90;99.90
5578;DHT22;2811;51.900;10.734;2022-09-09T01:52:51;15.00;99.90
5578;DHT22;2811;51.900;10.734;2022-09-09T01:55:26;15.00;99.90
5578;DHT22;2811;51.900;10.734;2022-09-09T01:58:03;15.10;99.90
5578;DHT22;2811;51.900;10.734;2022-09-09T02:00:36;15.10;99.90
5578;DHT22;2811;51.900;10.734;2022-09-09T02:03:11;15.10;99.90
5578;DHT22;2811;51.900;10.734;2022-09-09T02:05:41;15.10;99.90
5578;DHT22;2811;51.900;10.734;2022-09-09T02:08:11;15.10;99.90
5578;DHT22;2811;51.900;10.734;2022-09-09T02:10:44;14.90;99.90
5578;DHT22;2811;51.900;10.734;2022-09-09T02:13:17;14.90;99.90
5578;DHT22;2811;51.900;10.734;2022-09-09T02:15:48;15.00;99.90
5578;DHT22;2811;51.900;10.734;2022-09-09T02:18:22;15.00;99.90
5578;DHT22;2811;51.900;10.734;2022-09-09T02:20:51;15.00;99.90
5578;DHT22;2811;51.900;10.734;2022-09-09T02:23:19;15.20;99.90
5578;DHT22;2811;51.900;10.734;2022-09-09T02:25:48;15.20;99.90
5578;DHT22;2811;51.900;10.734;2022-09-09T02:28:20;15.30;99.90
5578;DHT22;2811;51.900;10.734;2022-09-09T02:30:50;15.40;99.90
5578;DHT22;2811;51.900;10.734;2022-09-09T02:33:22;15.40;99.90
5578;DHT22;2811;51.900;10.734;2022-09-09T02:35:51;15.40;99.90
5578;DHT22;2811;51.900;10.734;2022-09-09T02:38:20;15.30;99.90
5578;DHT22;2811;51.900;10.734;2022-09-09T02:40:47;15.20;99.90
5578;DHT22;2811;51.900;10.734;2022-09-09T02:43:14;15.40;99.90
5578;DHT22;2811;51.900;10.734;2022-09-09T02:45:49;15.70;99.90
5578;DHT22;2811;51.900;10.734;2022-09-09T02:48:23;15.20;99.90
5578;DHT22;2811;51.900;10.734;2022-09-09T02:50:56;15.20;99.90
5578;DHT22;2811;51.900;10.734;2022-09-09T02:53:35;15.20;99.90
5578;DHT22;2811;51.900;10.734;2022-09-09T02:56:05;15.20;99.90
5578;DHT22;2811;51.900;10.734;2022-09-09T02:58:35;15.20;99.90
5578;DHT22;2811;51.900;10.734;2022-09-09T03:01:04;15.10;99.90
5578;DHT22;2811;51.900;10.734;2022-09-09T03:03:31;15.10;99.90
5578;DHT22;2811;51.900;10.734;2022-09-09T03:05:58;15.10;99.90
5578;DHT22;2811;51.900;10.734;2022-09-09T03:08:25;15.10;99.90
5578;DHT22;2811;51.900;10.734;2022-09-09T03:10:54;15.10;99.90
5578;DHT22;2811;51.900;10.734;2022-09-09T03:13:21;15.10;99.90
5578;DHT22;2811;51.900;10.734;2022-09-09T03:15:48;15.20;99.90
5578;DHT22;2811;51.900;10.734;2022-09-09T03:18:16;15.00;99.90
5578;DHT22;2811;51.900;10.734;2022-09-09T03:20:43;15.00;99.90
5578;DHT22;2811;51.900;10.734;2022-09-09T03:23:09;15.00;99.90
5578;DHT22;2811;51.900;10.734;2022-09-09T03:25:36;15.10;99.90
5578;DHT22;2811;51.900;10.734;2022-09-09T03:28:03;15.20;99.90
5578;DHT22;2811;51.900;10.734;2022-09-09T03:30:30;15.20;99.90
5578;DHT22;2811;51.900;10.734;2022-09-09T03:32:57;15.20;99.90
5578;DHT22;2811;51.900;10.734;2022-09-09T03:35:25;15.20;99.90
5578;DHT22;2811;51.900;10.734;2022-09-09T03:37:52;15.20;99.90
5578;DHT22;2811;51.900;10.734;2022-09-09T03:40:20;15.20;99.90
5578;DHT22;2811;51.900;10.734;2022-09-09T03:42:47;15.10;99.90
5578;DHT22;2811;51.900;10.734;2022-09-09T03:45:14;15.10;99.90
5578;DHT22;2811;51.900;10.734;2022-09-09T03:47:40;15.10;99.90
5578;DHT22;2811;51.900;10.734;2022-09-09T03:50:08;15.10;99.90
5578;DHT22;2811;51.900;10.734;2022-09-09T03:52:38;15.10;99.90
5578;DHT22;2811;51.900;10.734;2022-09-09T03:55:06;15.20;99.90
5578;DHT22;2811;51.900;10.734;2022-09-09T03:57:34;15.20;99.90
5578;DHT22;2811;51.900;10.734;2022-09-09T04:00:02;15.30;99.90
5578;DHT22;2811;51.900;10.734;2022-09-09T04:02:28;15.30;99.90
5578;DHT22;2811;51.900;10.734;2022-09-09T04:04:55;15.30;99.90
5578;DHT22;2811;51.900;10.734;2022-09-09T04:07:22;15.40;99.90
5578;DHT22;2811;51.900;10.734;2022-09-09T04:09:50;15.30;99.90
5578;DHT22;2811;51.900;10.734;2022-09-09T04:12:16;15.30;99.90
5578;DHT22;2811;51.900;10.734;2022-09-09T04:14:43;15.30;99.90
5578;DHT22;2811;51.900;10.734;2022-09-09T04:17:09;15.30;99.90
5578;DHT22;2811;51.900;10.734;2022-09-09T04:19:36;15.40;99.90
5578;DHT22;2811;51.900;10.734;2022-09-09T04:22:03;15.40;99.90
5578;DHT22;2811;51.900;10.734;2022-09-09T04:24:29;15.40;99.90
5578;DHT22;2811;51.900;10.734;2022-09-09T04:26:57;15.30;99.90
5578;DHT22;2811;51.900;10.734;2022-09-09T04:29:24;15.30;99.90
5578;DHT22;2811;51.900;10.734;2022-09-09T04:31:50;15.30;99.90
5578;DHT22;2811;51.900;10.734;2022-09-09T04:34:17;15.40;99.90
5578;DHT22;2811;51.900;10.734;2022-09-09T04:36:44;15.40;99.90
5578;DHT22;2811;51.900;10.734;2022-09-09T04:39:11;15.50;99.90
5578;DHT22;2811;51.900;10.734;2022-09-09T04:41:37;15.60;99.90
5578;DHT22;2811;51.900;10.734;2022-09-09T04:44:05;15.70;99.90
5578;DHT22;2811;51.900;10.734;2022-09-09T04:46:32;15.60;99.90
5578;DHT22;2811;51.900;10.734;2022-09-09T04:48:59;15.70;99.90
5578;DHT22;2811;51.900;10.734;2022-09-09T04:51:26;15.80;99.90
5578;DHT22;2811;51.900;10.734;2022-09-09T04:53:53;15.80;99.90
5578;DHT22;2811;51.900;10.734;2022-09-09T04:56:20;15.70;99.90
5578;DHT22;2811;51.900;10.734;2022-09-09T04:58:46;15.60;99.90
5578;DHT22;2811;51.900;10.734;2022-09-09T05:01:17;15.60;99.90
5578;DHT22;2811;51.900;10.734;2022-09-09T05:03:44;15.60;99.90
5578;DHT22;2811;51.900;10.734;2022-09-09T05:06:13;15.50;99.90
5578;DHT22;2811;51.900;10.734;2022-09-09T05:08:41;15.60;99.90
5578;DHT22;2811;51.900;10.734;2022-09-09T05:11:14;15.50;99.90
5578;DHT22;2811;51.900;10.734;2022-09-09T05:13:41;15.50;99.90
5578;DHT22;2811;51.900;10.734;2022-09-09T05:16:08;15.70;99.90
5578;DHT22;2811;51.900;10.734;2022-09-09T05:18:37;16.00;99.90
5578;DHT22;2811;51.900;10.734;2022-09-09T05:21:04;16.10;99.90
5578;DHT22;2811;51.900;10.734;2022-09-09T05:23:31;16.10;99.90
5578;DHT22;2811;51.900;10.734;2022-09-09T05:25:59;16.20;99.90
5578;DHT22;2811;51.900;10.734;2022-09-09T05:28:27;16.40;99.90
5578;DHT22;2811;51.900;10.734;2022-09-09T05:30:57;16.60;99.90
5578;DHT22;2811;51.900;10.734;2022-09-09T05:33:24;16.60;99.90
5578;DHT22;2811;51.900;10.734;2022-09-09T05:35:57;16.60;99.90
5578;DHT22;2811;51.900;10.734;2022-09-09T05:38:24;16.50;99.90
5578;DHT22;2811;51.900;10.734;2022-09-09T05:40:51;16.40;99.90
5578;DHT22;2811;51.900;10.734;2022-09-09T05:43:18;16.40;99.90
5578;DHT22;2811;51.900;10.734;2022-09-09T05:45:45;16.50;99.90
5578;DHT22;2811;51.900;10.734;2022-09-09T05:48:13;16.50;99.90
5578;DHT22;2811;51.900;10.734;2022-09-09T05:50:40;16.30;99.90
5578;DHT22;2811;51.900;10.734;2022-09-09T05:53:08;16.30;99.90
5578;DHT22;2811;51.900;10.734;2022-09-09T05:55:35;16.40;99.90
5578;DHT22;2811;51.900;10.734;2022-09-09T05:58:02;16.40;99.90
5578;DHT22;2811;51.900;10.734;2022-09-09T06:00:28;16.40;99.90
5578;DHT22;2811;51.900;10.734;2022-09-09T06:02:57;16.40;99.90
5578;DHT22;2811;51.900;10.734;2022-09-09T06:05:23;16.40;99.90
5578;DHT22;2811;51.900;10.734;2022-09-09T06:07:53;16.30;99.90
5578;DHT22;2811;51.900;10.734;2022-09-09T06:10:21;16.30;99.90
5578;DHT22;2811;51.900;10.734;2022-09-09T06:12:47;16.30;99.90
5578;DHT22;2811;51.900;10.734;2022-09-09T06:15:14;16.30;99.90
5578;DHT22;2811;51.900;10.734;2022-09-09T06:17:41;16.50;99.90
5578;DHT22;2811;51.900;10.734;2022-09-09T06:20:08;16.60;99.90
5578;DHT22;2811;51.900;10.734;2022-09-09T06:22:35;16.60;99.90
5578;DHT22;2811;51.900;10.734;2022-09-09T06:25:02;16.50;99.90
5578;DHT22;2811;51.900;10.734;2022-09-09T06:27:30;16.50;99.90
5578;DHT22;2811;51.900;10.734;2022-09-09T06:29:56;16.70;99.90
5578;DHT22;2811;51.900;10.734;2022-09-09T06:32:23;16.70;99.90
5578;DHT22;2811;51.900;10.734;2022-09-09T06:34:50;16.80;99.90
5578;DHT22;2811;51.900;10.734;2022-09-09T06:37:16;16.80;99.90
5578;DHT22;2811;51.900;10.734;2022-09-09T06:39:44;16.70;99.90
5578;DHT22;2811;51.900;10.734;2022-09-09T06:42:10;16.70;99.90
5578;DHT22;2811;51.900;10.734;2022-09-09T06:44:38;16.80;99.90
5578;DHT22;2811;51.900;10.734;2022-09-09T06:47:05;16.80;99.90
5578;DHT22;2811;51.900;10.734;2022-09-09T06:49:32;16.80;99.90
5578;DHT22;2811;51.900;10.734;2022-09-09T06:52:00;16.80;99.90
5578;DHT22;2811;51.900;10.734;2022-09-09T06:54:27;17.00;99.90
5578;DHT22;2811;51.900;10.734;2022-09-09T06:56:53;17.10;99.90
5578;DHT22;2811;51.900;10.734;2022-09-09T06:59:20;17.30;99.90
5578;DHT22;2811;51.900;10.734;2022-09-09T07:01:48;17.30;99.90
5578;DHT22;2811;51.900;10.734;2022-09-09T07:04:17;17.50;99.90
5578;DHT22;2811;51.900;10.734;2022-09-09T07:06:45;17.70;99.90
5578;DHT22;2811;51.900;10.734;2022-09-09T07:09:13;18.00;99.90
5578;DHT22;2811;51.900;10.734;2022-09-09T07:11:43;18.10;99.90
5578;DHT22;2811;51.900;10.734;2022-09-09T07:14:11;18.20;99.90
5578;DHT22;2811;51.900;10.734;2022-09-09T07:16:39;18.50;99.90
5578;DHT22;2811;51.900;10.734;2022-09-09T07:19:07;18.40;99.90
5578;DHT22;2811;51.900;10.734;2022-09-09T07:21:34;18.80;99.90
5578;DHT22;2811;51.900;10.734;2022-09-09T07:24:01;19.30;99.90
5578;DHT22;2811;51.900;10.734;2022-09-09T07:26:30;19.90;99.90
5578;DHT22;2811;51.900;10.734;2022-09-09T07:28:57;20.20;99.90
5578;DHT22;2811;51.900;10.734;2022-09-09T07:31:25;20.20;99.90
5578;DHT22;2811;51.900;10.734;2022-09-09T07:33:52;20.40;99.90
5578;DHT22;2811;51.900;10.734;2022-09-09T07:36:22;20.70;99.90
5578;DHT22;2811;51.900;10.734;2022-09-09T07:38:50;20.60;99.90
5578;DHT22;2811;51.900;10.734;2022-09-09T07:41:20;20.60;99.90
5578;DHT22;2811;51.900;10.734;2022-09-09T07:43:49;20.80;99.90
5578;DHT22;2811;51.900;10.734;2022-09-09T07:46:17;20.50;99.90
5578;DHT22;2811;51.900;10.734;2022-09-09T07:48:45;20.40;99.90
5578;DHT22;2811;51.900;10.734;2022-09-09T07:51:14;19.80;99.90
5578;DHT22;2811;51.900;10.734;2022-09-09T07:53:43;19.70;99.90
5578;DHT22;2811;51.900;10.734;2022-09-09T07:56:12;19.70;99.90
5578;DHT22;2811;51.900;10.734;2022-09-09T07:58:40;19.70;99.90
5578;DHT22;2811;51.900;10.734;2022-09-09T08:01:09;19.20;99.90
5578;DHT22;2811;51.900;10.734;2022-09-09T08:03:37;19.20;99.90
5578;DHT22;2811;51.900;10.734;2022-09-09T08:06:05;19.30;99.90
5578;DHT22;2811;51.900;10.734;2022-09-09T08:08:33;19.30;99.90
5578;DHT22;2811;51.900;10.734;2022-09-09T08:11:07;19.20;99.90
5578;DHT22;2811;51.900;10.734;2022-09-09T08:13:35;19.30;99.90
5578;DHT22;2811;51.900;10.734;2022-09-09T08:16:09;19.20;99.90
5578;DHT22;2811;51.900;10.734;2022-09-09T08:18:37;19.20;99.90
5578;DHT22;2811;51.900;10.734;2022-09-09T08:21:09;19.40;99.90
5578;DHT22;2811;51.900;10.734;2022-09-09T08:23:37;19.70;99.90
5578;DHT22;2811;51.900;10.734;2022-09-09T08:26:09;19.70;99.90
5578;DHT22;2811;51.900;10.734;2022-09-09T08:28:36;19.60;99.90
5578;DHT22;2811;51.900;10.734;2022-09-09T08:31:07;19.60;99.90
5578;DHT22;2811;51.900;10.734;2022-09-09T08:33:34;19.50;99.90
5578;DHT22;2811;51.900;10.734;2022-09-09T08:36:04;19.50;99.90
5578;DHT22;2811;51.900;10.734;2022-09-09T08:38:30;19.50;99.90
5578;DHT22;2811;51.900;10.734;2022-09-09T08:41:14;19.60;99.90
5578;DHT22;2811;51.900;10.734;2022-09-09T08:43:43;19.50;99.90
5578;DHT22;2811;51.900;10.734;2022-09-09T08:46:15;19.40;99.90
5578;DHT22;2811;51.900;10.734;2022-09-09T08:48:52;19.40;99.90
5578;DHT22;2811;51.900;10.734;2022-09-09T08:51:24;19.80;99.90
5578;DHT22;2811;51.900;10.734;2022-09-09T08:53:52;20.30;99.90
5578;DHT22;2811;51.900;10.734;2022-09-09T08:56:24;20.60;99.90
5578;DHT22;2811;51.900;10.734;2022-09-09T08:58:52;20.90;99.90
5578;DHT22;2811;51.900;10.734;2022-09-09T09:01:32;20.90;99.90
5578;DHT22;2811;51.900;10.734;2022-09-09T09:04:07;20.70;99.90
5578;DHT22;2811;51.900;10.734;2022-09-09T09:06:45;20.80;99.90
5578;DHT22;2811;51.900;10.734;2022-09-09T09:09:22;20.80;99.90
5578;DHT22;2811;51.900;10.734;2022-09-09T09:11:55;20.90;99.90
5578;DHT22;2811;51.900;10.734;2022-09-09T09:14:27;20.70;99.90
5578;DHT22;2811;51.900;10.734;2022-09-09T09:16:58;20.70;99.90
5578;DHT22;2811;51.900;10.734;2022-09-09T09:19:26;20.40;99.90
5578;DHT22;2811;51.900;10.734;2022-09-09T09:21:57;20.30;99.90
5578;DHT22;2811;51.900;10.734;2022-09-09T09:24:33;20.20;99.90
5578;DHT22;2811;51.900;10.734;2022-09-09T09:27:13;20.20;99.90
5578;DHT22;2811;51.900;10.734;2022-09-09T09:29:41;20.00;99.90
5578;DHT22;2811;51.900;10.734;2022-09-09T09:32:12;20.00;99.90
5578;DHT22;2811;51.900;10.734;2022-09-09T09:34:40;20.10;99.90
5578;DHT22;2811;51.900;10.734;2022-09-09T09:37:14;20.20;99.90
5578;DHT22;2811;51.900;10.734;2022-09-09T09:39:45;20.10;99.90
5578;DHT22;2811;51.900;10.734;2022-09-09T09:42:16;20.10;99.90
5578;DHT22;2811;51.900;10.734;2022-09-09T09:44:43;20.30;99.90
5578;DHT22;2811;51.900;10.734;2022-09-09T09:47:12;20.60;99.90
5578;DHT22;2811;51.900;10.734;2022-09-09T09:49:39;20.90;99.90
5578;DHT22;2811;51.900;10.734;2022-09-09T09:52:20;21.30;99.90
5578;DHT22;2811;51.900;10.734;2022-09-09T09:54:48;21.80;99.90
5578;DHT22;2811;51.900;10.734;2022-09-09T09:57:18;21.90;99.90
5578;DHT22;2811;51.900;10.734;2022-09-09T09:59:45;21.90;99.90
5578;DHT22;2811;51.900;10.734;2022-09-09T10:02:15;21.60;99.90
5578;DHT22;2811;51.900;10.734;2022-09-09T10:04:42;21.70;99.90
5578;DHT22;2811;51.900;10.734;2022-09-09T10:07:11;22.00;99.90
5578;DHT22;2811;51.900;10.734;2022-09-09T10:09:38;22.20;99.90
5578;DHT22;2811;51.900;10.734;2022-09-09T10:12:15;22.20;99.90
5578;DHT22;2811;51.900;10.734;2022-09-09T10:14:52;22.00;99.90
5578;DHT22;2811;51.900;10.734;2022-09-09T10:17:25;21.70;99.90
5578;DHT22;2811;51.900;10.734;2022-09-09T10:20:01;21.30;99.90
5578;DHT22;2811;51.900;10.734;2022-09-09T10:22:33;21.00;99.90
5578;DHT22;2811;51.900;10.734;2022-09-09T10:25:27;20.80;99.90
5578;DHT22;2811;51.900;10.734;2022-09-09T10:28:12;20.80;99.90
5578;DHT22;2811;51.900;10.734;2022-09-09T10:30:47;20.80;99.90
5578;DHT22;2811;51.900;10.734;2022-09-09T10:33:25;20.80;99.90
5578;DHT22;2811;51.900;10.734;2022-09-09T10:36:02;20.90;99.90
5578;DHT22;2811;51.900;10.734;2022-09-09T10:38:39;21.00;99.90
5578;DHT22;2811;51.900;10.734;2022-09-09T10:41:17;21.00;99.90
5578;DHT22;2811;51.900;10.734;2022-09-09T10:44:03;21.20;99.90
5578;DHT22;2811;51.900;10.734;2022-09-09T10:46:45;21.40;99.90
5578;DHT22;2811;51.900;10.734;2022-09-09T10:49:25;21.50;99.90
5578;DHT22;2811;51.900;10.734;2022-09-09T10:52:01;21.50;99.90
5578;DHT22;2811;51.900;10.734;2022-09-09T10:54:46;21.50;99.90
5578;DHT22;2811;51.900;10.734;2022-09-09T10:57:26;20.70;99.90
5578;DHT22;2811;51.900;10.734;2022-09-09T10:59:57;20.60;99.90
5578;DHT22;2811;51.900;10.734;2022-09-09T11:02:27;20.50;99.90
5578;DHT22;2811;51.900;10.734;2022-09-09T11:04:59;20.40;99.90
5578;DHT22;2811;51.900;10.734;2022-09-09T11:07:33;20.30;99.90
5578;DHT22;2811;51.900;10.734;2022-09-09T11:10:03;20.40;99.90
5578;DHT22;2811;51.900;10.734;2022-09-09T11:12:34;20.10;99.90
5578;DHT22;2811;51.900;10.734;2022-09-09T11:15:06;20.00;99.90
5578;DHT22;2811;51.900;10.734;2022-09-09T11:17:39;19.90;99.90
5578;DHT22;2811;51.900;10.734;2022-09-09T11:20:11;20.00;99.90
5578;DHT22;2811;51.900;10.734;2022-09-09T11:22:45;19.90;99.90
5578;DHT22;2811;51.900;10.734;2022-09-09T11:25:16;19.90;99.90
5578;DHT22;2811;51.900;10.734;2022-09-09T11:27:53;19.80;99.90
5578;DHT22;2811;51.900;10.734;2022-09-09T11:30:31;19.70;99.90
5578;DHT22;2811;51.900;10.734;2022-09-09T11:36:32;19.60;99.90
5578;DHT22;2811;51.900;10.734;2022-09-09T11:39:12;19.50;99.90
5578;DHT22;2811;51.900;10.734;2022-09-09T11:41:42;19.60;99.90
5578;DHT22;2811;51.900;10.734;2022-09-09T11:44:11;19.80;99.90
5578;DHT22;2811;51.900;10.734;2022-09-09T11:46:40;20.00;99.90
5578;DHT22;2811;51.900;10.734;2022-09-09T11:49:27;20.30;99.90
5578;DHT22;2811;51.900;10.734;2022-09-09T11:51:54;21.00;99.90
5578;DHT22;2811;51.900;10.734;2022-09-09T11:54:29;21.30;99.90
5578;DHT22;2811;51.900;10.734;2022-09-09T11:56:57;21.70;99.90
5578;DHT22;2811;51.900;10.734;2022-09-09T11:59:27;21.90;99.90
5578;DHT22;2811;51.900;10.734;2022-09-09T12:01:55;22.20;99.90
5578;DHT22;2811;51.900;10.734;2022-09-09T12:04:43;22.00;99.90
5578;DHT22;2811;51.900;10.734;2022-09-09T12:07:26;22.40;99.90
5578;DHT22;2811;51.900;10.734;2022-09-09T12:09:58;22.40;99.90
5578;DHT22;2811;51.900;10.734;2022-09-09T12:12:31;22.40;99.90
5578;DHT22;2811;51.900;10.734;2022-09-09T12:15:24;22.70;99.90
5578;DHT22;2811;51.900;10.734;2022-09-09T12:17:55;22.80;99.90
5578;DHT22;2811;51.900;10.734;2022-09-09T12:20:30;22.70;99.90
5578;DHT22;2811;51.900;10.734;2022-09-09T12:23:16;22.60;99.90
5578;DHT22;2811;51.900;10.734;2022-09-09T12:26:00;22.80;99.90
5578;DHT22;2811;51.900;10.734;2022-09-09T12:28:41;22.90;99.90
5578;DHT22;2811;51.900;10.734;2022-09-09T12:31:15;22.90;99.90
5578;DHT22;2811;51.900;10.734;2022-09-09T12:33:45;23.00;99.90
5578;DHT22;2811;51.900;10.734;2022-09-09T12:36:16;23.10;99.90
5578;DHT22;2811;51.900;10.734;2022-09-09T12:38:45;22.90;99.90
5578;DHT22;2811;51.900;10.734;2022-09-09T12:41:22;22.80;99.90
5578;DHT22;2811;51.900;10.734;2022-09-09T12:43:50;22.90;99.90
5578;DHT22;2811;51.900;10.734;2022-09-09T12:46:31;23.10;99.90
5578;DHT22;2811;51.900;10.734;2022-09-09T12:49:01;23.10;99.90
5578;DHT22;2811;51.900;10.734;2022-09-09T12:51:31;23.20;99.90
5578;DHT22;2811;51.900;10.734;2022-09-09T12:53:59;23.30;99.90
5578;DHT22;2811;51.900;10.734;2022-09-09T12:56:28;23.20;99.90
5578;DHT22;2811;51.900;10.734;2022-09-09T12:58:57;23.40;99.90
5578;DHT22;2811;51.900;10.734;2022-09-09T13:01:27;23.50;99.90
5578;DHT22;2811;51.900;10.734;2022-09-09T13:03:54;23.20;99.90
5578;DHT22;2811;51.900;10.734;2022-09-09T13:06:23;23.10;98.90
5578;DHT22;2811;51.900;10.734;2022-09-09T13:08:52;22.90;98.50
5578;DHT22;2811;51.900;10.734;2022-09-09T13:11:22;22.90;99.10
5578;DHT22;2811;51.900;10.734;2022-09-09T13:13:52;22.70;98.60
5578;DHT22;2811;51.900;10.734;2022-09-09T13:16:22;22.70;99.90
5578;DHT22;2811;51.900;10.734;2022-09-09T13:18:50;22.60;99.00
5578;DHT22;2811;51.900;10.734;2022-09-09T13:21:17;22.60;98.60
5578;DHT22;2811;51.900;10.734;2022-09-09T13:23:49;22.60;99.60
5578;DHT22;2811;51.900;10.734;2022-09-09T13:26:25;22.50;98.40
5578;DHT22;2811;51.900;10.734;2022-09-09T13:28:53;22.60;98.30
5578;DHT22;2811;51.900;10.734;2022-09-09T13:31:23;22.90;99.40
5578;DHT22;2811;51.900;10.734;2022-09-09T13:33:52;23.30;99.40
5578;DHT22;2811;51.900;10.734;2022-09-09T13:36:28;23.40;98.80
5578;DHT22;2811;51.900;10.734;2022-09-09T13:38:58;23.30;97.80
5578;DHT22;2811;51.900;10.734;2022-09-09T13:41:29;23.30;98.20
5578;DHT22;2811;51.900;10.734;2022-09-09T13:43:56;23.00;98.70
5578;DHT22;2811;51.900;10.734;2022-09-09T13:46:31;23.00;98.90
5578;DHT22;2811;51.900;10.734;2022-09-09T13:49:00;23.10;99.70
5578;DHT22;2811;51.900;10.734;2022-09-09T13:51:33;23.40;99.50
5578;DHT22;2811;51.900;10.734;2022-09-09T13:54:03;23.60;98.10
5578;DHT22;2811;51.900;10.734;2022-09-09T13:56:32;23.90;98.60
5578;DHT22;2811;51.900;10.734;2022-09-09T13:58:58;23.50;98.40
5578;DHT22;2811;51.900;10.734;2022-09-09T14:01:25;23.60;97.50
5578;DHT22;2811;51.900;10.734;2022-09-09T14:03:52;24.10;97.20
5578;DHT22;2811;51.900;10.734;2022-09-09T14:06:19;24.30;96.70
5578;DHT22;2811;51.900;10.734;2022-09-09T14:08:47;24.30;96.10
5578;DHT22;2811;51.900;10.734;2022-09-09T14:11:14;23.50;96.50
5578;DHT22;2811;51.900;10.734;2022-09-09T14:13:42;23.20;97.10
5578;DHT22;2811;51.900;10.734;2022-09-09T14:16:09;23.30;96.80
5578;DHT22;2811;51.900;10.734;2022-09-09T14:18:36;23.50;97.70
5578;DHT22;2811;51.900;10.734;2022-09-09T14:21:03;23.70;96.90
5578;DHT22;2811;51.900;10.734;2022-09-09T14:23:29;23.60;96.10
5578;DHT22;2811;51.900;10.734;2022-09-09T14:25:57;23.20;96.20
5578;DHT22;2811;51.900;10.734;2022-09-09T14:28:24;23.20;97.10
5578;DHT22;2811;51.900;10.734;2022-09-09T14:30:53;23.30;96.80
5578;DHT22;2811;51.900;10.734;2022-09-09T14:33:19;22.90;96.60
5578;DHT22;2811;51.900;10.734;2022-09-09T14:35:46;22.80;97.80
5578;DHT22;2811;51.900;10.734;2022-09-09T14:38:14;22.70;97.50
5578;DHT22;2811;51.900;10.734;2022-09-09T14:40:40;22.80;97.50
5578;DHT22;2811;51.900;10.734;2022-09-09T14:43:10;22.90;98.40
5578;DHT22;2811;51.900;10.734;2022-09-09T14:45:37;23.00;98.20
5578;DHT22;2811;51.900;10.734;2022-09-09T14:48:05;23.10;97.90
5578;DHT22;2811;51.900;10.734;2022-09-09T14:50:32;23.00;97.60
5578;DHT22;2811;51.900;10.734;2022-09-09T14:53:00;23.00;97.90
5578;DHT22;2811;51.900;10.734;2022-09-09T14:55:26;23.00;98.20
5578;DHT22;2811;51.900;10.734;2022-09-09T14:57:54;23.00;97.80
5578;DHT22;2811;51.900;10.734;2022-09-09T15:00:21;23.10;97.80
5578;DHT22;2811;51.900;10.734;2022-09-09T15:02:47;23.20;97.40
5578;DHT22;2811;51.900;10.734;2022-09-09T15:05:15;23.20;97.40
5578;DHT22;2811;51.900;10.734;2022-09-09T15:07:42;23.10;97.60
5578;DHT22;2811;51.900;10.734;2022-09-09T15:10:09;23.20;97.80
5578;DHT22;2811;51.900;10.734;2022-09-09T15:12:36;23.20;97.40
5578;DHT22;2811;51.900;10.734;2022-09-09T15:15:05;23.00;97.70
5578;DHT22;2811;51.900;10.734;2022-09-09T15:17:31;23.00;98.10
5578;DHT22;2811;51.900;10.734;2022-09-09T15:19:58;22.80;97.70
5578;DHT22;2811;51.900;10.734;2022-09-09T15:22:26;22.60;98.10
5578;DHT22;2811;51.900;10.734;2022-09-09T15:24:53;22.40;98.30
5578;DHT22;2811;51.900;10.734;2022-09-09T15:27:19;22.30;98.90
5578;DHT22;2811;51.900;10.734;2022-09-09T15:29:46;22.50;98.90
5578;DHT22;2811;51.900;10.734;2022-09-09T15:32:13;22.50;99.00
5578;DHT22;2811;51.900;10.734;2022-09-09T15:34:39;22.70;99.30
5578;DHT22;2811;51.900;10.734;2022-09-09T15:37:06;22.60;98.50
5578;DHT22;2811;51.900;10.734;2022-09-09T15:39:34;22.50;98.50
5578;DHT22;2811;51.900;10.734;2022-09-09T15:42:01;22.40;98.20
5578;DHT22;2811;51.900;10.734;2022-09-09T15:44:27;22.40;98.30
5578;DHT22;2811;51.900;10.734;2022-09-09T15:46:54;22.20;98.90
5578;DHT22;2811;51.900;10.734;2022-09-09T15:49:22;22.00;97.90
5578;DHT22;2811;51.900;10.734;2022-09-09T15:51:51;21.90;98.10
5578;DHT22;2811;51.900;10.734;2022-09-09T15:54:19;21.90;97.30
5578;DHT22;2811;51.900;10.734;2022-09-09T15:56:51;21.90;97.30
5578;DHT22;2811;51.900;10.734;2022-09-09T15:59:18;21.70;96.60
5578;DHT22;2811;51.900;10.734;2022-09-09T16:01:44;21.70;96.40
5578;DHT22;2811;51.900;10.734;2022-09-09T16:04:11;21.80;96.80
5578;DHT22;2811;51.900;10.734;2022-09-09T16:06:38;21.70;96.60